sensor_id;sensor_type;location;lat;lon;timestamp;pressure;altitude;pressure_sealevel;temperature;humidity
83448;BME280;73376;45.472;-73.568;2024-01-11T00:01:35;98845.63;;;2.26;62.14
83448;BME280;73376;45.472;-73.568;2024-01-11T00:04:01;98859.75;;;2.35;62.36
83448;BME280;73376;45.472;-73.568;2024-01-11T00:06:29;98890.81;;;2.44;62.44
83448;BME280;73376;45.472;-73.568;2024-01-11T00:08:55;98914.50;;;2.35;62.75
83448;BME280;73376;45.472;-73.568;2024-01-11T00:11:21;98915.72;;;2.33;63.10
83448;BME280;73376;45.472;-73.568;2024-01-11T00:13:47;98914.28;;;2.37;63.35
83448;BME280;73376;45.472;-73.568;2024-01-11T00:16:16;98898.72;;;2.19;63.69
83448;BME280;73376;45.472;-73.568;2024-01-11T00:18:42;98906.19;;;2.24;64.22
83448;BME280;73376;45.472;-73.568;2024-01-11T00:21:08;98915.31;;;2.29;63.49
83448;BME280;73376;45.472;-73.568;2024-01-11T00:23:34;98854.56;;;1.80;63.34
83448;BME280;73376;45.472;-73.568;2024-01-11T00:26:00;98938.13;;;2.20;63.44
83448;BME280;73376;45.472;-73.568;2024-01-11T00:28:26;98894.56;;;1.97;62.79
83448;BME280;73376;45.472;-73.568;2024-01-11T00:30:52;98933.38;;;2.22;62.46
83448;BME280;73376;45.472;-73.568;2024-01-11T00:33:18;98950.16;;;2.11;62.90
83448;BME280;73376;45.472;-73.568;2024-01-11T00:35:44;98965.91;;;2.14;63.14
83448;BME280;73376;45.472;-73.568;2024-01-11T00:38:11;98965.50;;;2.04;63.55
83448;BME280;73376;45.472;-73.568;2024-01-11T00:40:37;98978.13;;;2.10;63.58
83448;BME280;73376;45.472;-73.568;2024-01-11T00:43:04;98947.81;;;1.81;64.14
83448;BME280;73376;45.472;-73.568;2024-01-11T00:45:30;98987.88;;;2.04;63.91
83448;BME280;73376;45.472;-73.568;2024-01-11T00:47:56;99007.16;;;2.01;64.23
83448;BME280;73376;45.472;-73.568;2024-01-11T00:50:22;99003.81;;;1.99;64.08
83448;BME280;73376;45.472;-73.568;2024-01-11T00:52:48;99005.63;;;1.85;64.39
83448;BME280;73376;45.472;-73.568;2024-01-11T00:55:14;99007.69;;;1.77;64.59
83448;BME280;73376;45.472;-73.568;2024-01-11T00:57:41;99029.69;;;1.94;64.74
83448;BME280;73376;45.472;-73.568;2024-01-11T01:00:08;99052.69;;;1.89;64.50
83448;BME280;73376;45.472;-73.568;2024-01-11T01:02:38;99050.41;;;1.86;64.49
83448;BME280;73376;45.472;-73.568;2024-01-11T01:05:04;99029.84;;;1.72;64.96
83448;BME280;73376;45.472;-73.568;2024-01-11T01:07:30;99071.72;;;1.75;65.25
83448;BME280;73376;45.472;-73.568;2024-01-11T01:09:56;99069.84;;;1.75;65.76
83448;BME280;73376;45.472;-73.568;2024-01-11T01:12:22;99087.22;;;1.73;65.85
83448;BME280;73376;45.472;-73.568;2024-01-11T01:14:48;99066.94;;;1.70;65.75
83448;BME280;73376;45.472;-73.568;2024-01-11T01:17:14;99057.88;;;1.43;65.85
83448;BME280;73376;45.472;-73.568;2024-01-11T01:19:43;99104.41;;;1.65;65.99
83448;BME280;73376;45.472;-73.568;2024-01-11T01:22:09;99101.66;;;1.58;66.43
83448;BME280;73376;45.472;-73.568;2024-01-11T01:24:35;99076.88;;;1.35;66.57
83448;BME280;73376;45.472;-73.568;2024-01-11T01:27:06;99106.97;;;1.45;66.36
83448;BME280;73376;45.472;-73.568;2024-01-11T01:29:32;99130.47;;;1.58;66.10
83448;BME280;73376;45.472;-73.568;2024-01-11T01:31:58;99122.72;;;1.48;66.09
83448;BME280;73376;45.472;-73.568;2024-01-11T01:34:24;99118.72;;;1.37;66.59
83448;BME280;73376;45.472;-73.568;2024-01-11T01:36:52;99166.16;;;1.38;66.62
83448;BME280;73376;45.472;-73.568;2024-01-11T01:39:18;99139.00;;;1.33;66.88
83448;BME280;73376;45.472;-73.568;2024-01-11T01:41:44;99129.44;;;1.31;67.16
83448;BME280;73376;45.472;-73.568;2024-01-11T01:44:15;99167.78;;;1.33;67.03
83448;BME280;73376;45.472;-73.568;2024-01-11T01:46:41;99165.47;;;1.30;67.29
83448;BME280;73376;45.472;-73.568;2024-01-11T01:49:07;99179.16;;;1.35;67.74
83448;BME280;73376;45.472;-73.568;2024-01-11T01:51:33;99171.03;;;1.28;68.05
83448;BME280;73376;45.472;-73.568;2024-01-11T01:54:00;99179.94;;;1.29;68.23
83448;BME280;73376;45.472;-73.568;2024-01-11T01:56:28;99152.03;;;1.08;68.36
83448;BME280;73376;45.472;-73.568;2024-01-11T01:58:55;99152.63;;;1.04;68.74
83448;BME280;73376;45.472;-73.568;2024-01-11T02:01:25;99172.72;;;1.08;68.61
83448;BME280;73376;45.472;-73.568;2024-01-11T02:03:56;99195.72;;;1.10;69.11
83448;BME280;73376;45.472;-73.568;2024-01-11T02:06:23;99191.63;;;1.14;69.27
83448;BME280;73376;45.472;-73.568;2024-01-11T02:08:55;99197.00;;;1.14;69.37
83448;BME280;73376;45.472;-73.568;2024-01-11T02:11:25;99185.56;;;1.06;68.81
83448;BME280;73376;45.472;-73.568;2024-01-11T02:13:51;99193.25;;;1.09;68.73
83448;BME280;73376;45.472;-73.568;2024-01-11T02:16:17;99211.69;;;1.12;68.40
83448;BME280;73376;45.472;-73.568;2024-01-11T02:18:43;99235.13;;;1.18;68.29
83448;BME280;73376;45.472;-73.568;2024-01-11T02:21:11;99210.41;;;1.08;68.01
83448;BME280;73376;45.472;-73.568;2024-01-11T02:23:43;99240.13;;;1.21;67.88
83448;BME280;73376;45.472;-73.568;2024-01-11T02:26:14;99231.09;;;1.07;68.13
83448;BME280;73376;45.472;-73.568;2024-01-11T02:28:44;99242.22;;;1.19;67.27
83448;BME280;73376;45.472;-73.568;2024-01-11T02:31:12;99255.41;;;1.14;67.37
83448;BME280;73376;45.472;-73.568;2024-01-11T02:33:39;99227.97;;;1.04;66.95
83448;BME280;73376;45.472;-73.568;2024-01-11T02:36:08;99269.56;;;1.23;65.64
83448;BME280;73376;45.472;-73.568;2024-01-11T02:38:35;99277.38;;;1.17;65.45
83448;BME280;73376;45.472;-73.568;2024-01-11T02:41:04;99252.56;;;1.01;64.51
83448;BME280;73376;45.472;-73.568;2024-01-11T02:43:31;99257.31;;;0.99;64.40
83448;BME280;73376;45.472;-73.568;2024-01-11T02:45:57;99286.47;;;1.16;64.73
83448;BME280;73376;45.472;-73.568;2024-01-11T02:48:30;99287.91;;;1.12;64.77
83448;BME280;73376;45.472;-73.568;2024-01-11T02:50:59;99315.81;;;1.11;64.94
83448;BME280;73376;45.472;-73.568;2024-01-11T02:53:25;99267.28;;;0.83;64.94
83448;BME280;73376;45.472;-73.568;2024-01-11T02:55:51;99336.88;;;1.08;64.18
83448;BME280;73376;45.472;-73.568;2024-01-11T02:58:17;99342.56;;;1.13;63.97
83448;BME280;73376;45.472;-73.568;2024-01-11T03:00:43;99304.28;;;0.96;64.16
83448;BME280;73376;45.472;-73.568;2024-01-11T03:03:09;99300.97;;;0.64;64.09
83448;BME280;73376;45.472;-73.568;2024-01-11T03:05:35;99322.00;;;0.90;64.53
83448;BME280;73376;45.472;-73.568;2024-01-11T03:08:01;99347.13;;;0.98;64.39
83448;BME280;73376;45.472;-73.568;2024-01-11T03:10:27;99337.22;;;0.83;64.41
83448;BME280;73376;45.472;-73.568;2024-01-11T03:12:53;99338.50;;;0.87;64.60
83448;BME280;73376;45.472;-73.568;2024-01-11T03:15:19;99353.91;;;0.93;64.68
83448;BME280;73376;45.472;-73.568;2024-01-11T03:17:46;99368.00;;;0.96;65.28
83448;BME280;73376;45.472;-73.568;2024-01-11T03:20:12;99367.34;;;0.93;65.53
83448;BME280;73376;45.472;-73.568;2024-01-11T03:22:45;99397.63;;;0.96;65.37
83448;BME280;73376;45.472;-73.568;2024-01-11T03:25:11;99396.03;;;0.86;65.55
83448;BME280;73376;45.472;-73.568;2024-01-11T03:27:37;99381.09;;;0.84;64.57
83448;BME280;73376;45.472;-73.568;2024-01-11T03:30:04;99381.84;;;0.63;64.55
83448;BME280;73376;45.472;-73.568;2024-01-11T03:32:30;99412.56;;;0.68;64.86
83448;BME280;73376;45.472;-73.568;2024-01-11T03:34:56;99397.69;;;0.58;64.50
83448;BME280;73376;45.472;-73.568;2024-01-11T03:37:22;99405.47;;;0.53;64.92
83448;BME280;73376;45.472;-73.568;2024-01-11T03:39:48;99402.50;;;0.47;65.60
83448;BME280;73376;45.472;-73.568;2024-01-11T03:42:16;99433.28;;;0.45;65.39
83448;BME280;73376;45.472;-73.568;2024-01-11T03:44:45;99424.78;;;0.18;64.51
83448;BME280;73376;45.472;-73.568;2024-01-11T03:47:11;99412.50;;;0.01;64.75
83448;BME280;73376;45.472;-73.568;2024-01-11T03:49:39;99434.41;;;0.13;64.36
83448;BME280;73376;45.472;-73.568;2024-01-11T03:52:05;99422.06;;;0.04;63.06
83448;BME280;73376;45.472;-73.568;2024-01-11T03:54:32;99472.50;;;0.16;63.36
83448;BME280;73376;45.472;-73.568;2024-01-11T03:56:58;99449.66;;;-0.03;63.61
83448;BME280;73376;45.472;-73.568;2024-01-11T03:59:24;99484.81;;;0.11;62.25
83448;BME280;73376;45.472;-73.568;2024-01-11T04:01:50;99485.53;;;0.05;61.88
83448;BME280;73376;45.472;-73.568;2024-01-11T04:04:16;99485.75;;;-0.05;62.07
83448;BME280;73376;45.472;-73.568;2024-01-11T04:06:42;99499.00;;;-0.04;62.11
83448;BME280;73376;45.472;-73.568;2024-01-11T04:09:08;99520.88;;;-0.07;62.78
83448;BME280;73376;45.472;-73.568;2024-01-11T04:11:34;99520.63;;;-0.20;62.40
83448;BME280;73376;45.472;-73.568;2024-01-11T04:14:01;99532.88;;;-0.26;63.05
83448;BME280;73376;45.472;-73.568;2024-01-11T04:16:26;99488.59;;;-0.61;63.62
83448;BME280;73376;45.472;-73.568;2024-01-11T04:18:52;99523.88;;;-0.41;63.59
83448;BME280;73376;45.472;-73.568;2024-01-11T04:21:26;99549.75;;;-0.48;63.42
83448;BME280;73376;45.472;-73.568;2024-01-11T04:23:56;99539.06;;;-0.56;63.29
83448;BME280;73376;45.472;-73.568;2024-01-11T04:26:22;99543.94;;;-0.60;63.78
83448;BME280;73376;45.472;-73.568;2024-01-11T04:28:49;99553.03;;;-0.61;63.69
83448;BME280;73376;45.472;-73.568;2024-01-11T04:31:15;99560.22;;;-0.61;63.40
83448;BME280;73376;45.472;-73.568;2024-01-11T04:33:46;99563.91;;;-0.62;62.62
83448;BME280;73376;45.472;-73.568;2024-01-11T04:36:12;99556.75;;;-0.78;62.81
83448;BME280;73376;45.472;-73.568;2024-01-11T04:38:39;99563.47;;;-0.82;62.25
83448;BME280;73376;45.472;-73.568;2024-01-11T04:41:09;99568.19;;;-0.84;62.45
83448;BME280;73376;45.472;-73.568;2024-01-11T04:43:43;99580.06;;;-0.79;62.04
83448;BME280;73376;45.472;-73.568;2024-01-11T04:46:16;99592.81;;;-0.81;62.34
83448;BME280;73376;45.472;-73.568;2024-01-11T04:48:43;99588.81;;;-0.85;62.15
83448;BME280;73376;45.472;-73.568;2024-01-11T04:51:09;99600.88;;;-0.89;61.93
83448;BME280;73376;45.472;-73.568;2024-01-11T04:53:39;99614.63;;;-0.92;61.85
83448;BME280;73376;45.472;-73.568;2024-01-11T04:56:07;99606.06;;;-0.96;61.89
83448;BME280;73376;45.472;-73.568;2024-01-11T04:58:39;99597.72;;;-1.01;62.08
83448;BME280;73376;45.472;-73.568;2024-01-11T05:01:06;99608.75;;;-0.96;62.45
83448;BME280;73376;45.472;-73.568;2024-01-11T05:03:35;99624.22;;;-0.98;62.28
83448;BME280;73376;45.472;-73.568;2024-01-11T05:06:01;99629.72;;;-0.91;61.83
83448;BME280;73376;45.472;-73.568;2024-01-11T05:08:30;99635.94;;;-0.90;59.01
83448;BME280;73376;45.472;-73.568;2024-01-11T05:10:56;99654.38;;;-0.96;58.16
83448;BME280;73376;45.472;-73.568;2024-01-11T05:13:22;99611.31;;;-1.18;58.08
83448;BME280;73376;45.472;-73.568;2024-01-11T05:15:48;99638.44;;;-1.13;57.73
83448;BME280;73376;45.472;-73.568;2024-01-11T05:18:14;99633.44;;;-1.25;57.47
83448;BME280;73376;45.472;-73.568;2024-01-11T05:20:40;99641.31;;;-1.31;57.31
83448;BME280;73376;45.472;-73.568;2024-01-11T05:23:09;99635.06;;;-1.40;56.55
83448;BME280;73376;45.472;-73.568;2024-01-11T05:25:35;99689.56;;;-1.23;56.25
83448;BME280;73376;45.472;-73.568;2024-01-11T05:28:02;99663.22;;;-1.44;56.61
83448;BME280;73376;45.472;-73.568;2024-01-11T05:30:29;99687.53;;;-1.46;56.36
83448;BME280;73376;45.472;-73.568;2024-01-11T05:32:55;99693.41;;;-1.42;56.77
83448;BME280;73376;45.472;-73.568;2024-01-11T05:35:24;99684.84;;;-1.46;57.59
83448;BME280;73376;45.472;-73.568;2024-01-11T05:37:55;99706.63;;;-1.40;57.42
83448;BME280;73376;45.472;-73.568;2024-01-11T05:40:21;99726.72;;;-1.45;56.66
83448;BME280;73376;45.472;-73.568;2024-01-11T05:42:47;99726.22;;;-1.48;56.26
83448;BME280;73376;45.472;-73.568;2024-01-11T05:45:14;99729.22;;;-1.59;56.04
83448;BME280;73376;45.472;-73.568;2024-01-11T05:47:43;99714.91;;;-1.76;55.55
83448;BME280;73376;45.472;-73.568;2024-01-11T05:50:10;99758.84;;;-1.61;55.01
83448;BME280;73376;45.472;-73.568;2024-01-11T05:52:37;99762.81;;;-1.73;54.32
83448;BME280;73376;45.472;-73.568;2024-01-11T05:55:03;99794.28;;;-1.75;54.04
83448;BME280;73376;45.472;-73.568;2024-01-11T05:57:32;99748.75;;;-2.01;54.27
83448;BME280;73376;45.472;-73.568;2024-01-11T05:59:58;99775.53;;;-2.01;53.76
83448;BME280;73376;45.472;-73.568;2024-01-11T06:02:25;99796.44;;;-2.05;54.51
83448;BME280;73376;45.472;-73.568;2024-01-11T06:04:51;99796.84;;;-2.00;54.20
83448;BME280;73376;45.472;-73.568;2024-01-11T06:07:20;99802.66;;;-2.04;54.28
83448;BME280;73376;45.472;-73.568;2024-01-11T06:09:46;99806.81;;;-2.10;53.20
83448;BME280;73376;45.472;-73.568;2024-01-11T06:12:16;99804.91;;;-2.18;52.81
83448;BME280;73376;45.472;-73.568;2024-01-11T06:14:42;99790.81;;;-2.46;52.75
83448;BME280;73376;45.472;-73.568;2024-01-11T06:17:08;99817.13;;;-2.41;52.84
83448;BME280;73376;45.472;-73.568;2024-01-11T06:19:37;99843.41;;;-2.36;52.58
83448;BME280;73376;45.472;-73.568;2024-01-11T06:22:04;99844.97;;;-2.34;53.19
83448;BME280;73376;45.472;-73.568;2024-01-11T06:24:33;99844.03;;;-2.43;53.30
83448;BME280;73376;45.472;-73.568;2024-01-11T06:27:02;99857.28;;;-2.41;53.01
83448;BME280;73376;45.472;-73.568;2024-01-11T06:29:30;99874.84;;;-2.39;53.47
83448;BME280;73376;45.472;-73.568;2024-01-11T06:31:56;99858.03;;;-2.49;53.18
83448;BME280;73376;45.472;-73.568;2024-01-11T06:34:22;99905.00;;;-2.36;52.65
83448;BME280;73376;45.472;-73.568;2024-01-11T06:36:48;99904.22;;;-2.47;52.88
83448;BME280;73376;45.472;-73.568;2024-01-11T06:39:14;99884.84;;;-2.58;53.79
83448;BME280;73376;45.472;-73.568;2024-01-11T06:41:40;99897.88;;;-2.64;52.87
83448;BME280;73376;45.472;-73.568;2024-01-11T06:44:11;99921.78;;;-2.62;52.98
83448;BME280;73376;45.472;-73.568;2024-01-11T06:46:37;99939.00;;;-2.65;52.84
83448;BME280;73376;45.472;-73.568;2024-01-11T06:49:05;99945.19;;;-2.64;53.22
83448;BME280;73376;45.472;-73.568;2024-01-11T06:51:31;99946.78;;;-2.71;52.72
83448;BME280;73376;45.472;-73.568;2024-01-11T06:53:58;99936.91;;;-2.89;52.29
83448;BME280;73376;45.472;-73.568;2024-01-11T06:56:25;99939.56;;;-2.89;52.57
83448;BME280;73376;45.472;-73.568;2024-01-11T06:58:54;99979.03;;;-2.73;52.02
83448;BME280;73376;45.472;-73.568;2024-01-11T07:01:21;99967.69;;;-2.84;52.93
83448;BME280;73376;45.472;-73.568;2024-01-11T07:03:47;99963.38;;;-2.95;52.35
83448;BME280;73376;45.472;-73.568;2024-01-11T07:06:15;99999.63;;;-2.83;52.83
83448;BME280;73376;45.472;-73.568;2024-01-11T07:08:43;99996.13;;;-2.83;52.72
83448;BME280;73376;45.472;-73.568;2024-01-11T07:11:10;100006.53;;;-2.80;53.29
83448;BME280;73376;45.472;-73.568;2024-01-11T07:13:36;99999.91;;;-2.86;53.07
83448;BME280;73376;45.472;-73.568;2024-01-11T07:16:06;100026.34;;;-2.73;53.19
83448;BME280;73376;45.472;-73.568;2024-01-11T07:18:32;100029.88;;;-2.82;52.76
83448;BME280;73376;45.472;-73.568;2024-01-11T07:20:59;100023.56;;;-2.81;52.83
83448;BME280;73376;45.472;-73.568;2024-01-11T07:23:25;100035.25;;;-2.82;52.92
83448;BME280;73376;45.472;-73.568;2024-01-11T07:25:51;100009.41;;;-2.92;53.59
83448;BME280;73376;45.472;-73.568;2024-01-11T07:28:17;100062.41;;;-2.77;52.48
83448;BME280;73376;45.472;-73.568;2024-01-11T07:30:45;100059.19;;;-2.81;52.85
83448;BME280;73376;45.472;-73.568;2024-01-11T07:33:14;100069.34;;;-2.84;52.70
83448;BME280;73376;45.472;-73.568;2024-01-11T07:35:40;100051.66;;;-3.05;52.58
83448;BME280;73376;45.472;-73.568;2024-01-11T07:38:09;100101.00;;;-2.90;52.92
83448;BME280;73376;45.472;-73.568;2024-01-11T07:40:38;100073.91;;;-3.04;52.94
83448;BME280;73376;45.472;-73.568;2024-01-11T07:43:05;100098.63;;;-2.93;53.23
83448;BME280;73376;45.472;-73.568;2024-01-11T07:45:31;100086.72;;;-3.08;53.49
83448;BME280;73376;45.472;-73.568;2024-01-11T07:47:57;100091.78;;;-3.05;54.24
83448;BME280;73376;45.472;-73.568;2024-01-11T07:50:23;100071.81;;;-3.20;53.77
83448;BME280;73376;45.472;-73.568;2024-01-11T07:52:49;100072.94;;;-3.23;53.98
83448;BME280;73376;45.472;-73.568;2024-01-11T07:55:17;100098.69;;;-3.12;53.74
83448;BME280;73376;45.472;-73.568;2024-01-11T07:57:43;100093.47;;;-3.14;54.42
83448;BME280;73376;45.472;-73.568;2024-01-11T08:00:10;100075.50;;;-3.31;54.40
83448;BME280;73376;45.472;-73.568;2024-01-11T08:02:36;100120.06;;;-3.12;54.23
83448;BME280;73376;45.472;-73.568;2024-01-11T08:05:03;100120.38;;;-3.15;54.26
83448;BME280;73376;45.472;-73.568;2024-01-11T08:07:30;100131.44;;;-3.10;53.73
83448;BME280;73376;45.472;-73.568;2024-01-11T08:09:56;100133.28;;;-3.20;53.94
83448;BME280;73376;45.472;-73.568;2024-01-11T08:12:25;100142.44;;;-3.13;53.79
83448;BME280;73376;45.472;-73.568;2024-01-11T08:14:51;100137.38;;;-3.16;53.27
83448;BME280;73376;45.472;-73.568;2024-01-11T08:17:18;100146.38;;;-3.17;53.59
83448;BME280;73376;45.472;-73.568;2024-01-11T08:19:44;100143.88;;;-3.19;53.80
83448;BME280;73376;45.472;-73.568;2024-01-11T08:22:13;100044.75;;;-3.84;53.26
83448;BME280;73376;45.472;-73.568;2024-01-11T08:24:39;100145.81;;;-3.30;53.48
83448;BME280;73376;45.472;-73.568;2024-01-11T08:27:05;100162.13;;;-3.24;53.45
83448;BME280;73376;45.472;-73.568;2024-01-11T08:29:31;100173.25;;;-3.28;53.87
83448;BME280;73376;45.472;-73.568;2024-01-11T08:31:58;100161.56;;;-3.37;54.17
83448;BME280;73376;45.472;-73.568;2024-01-11T08:34:26;100174.81;;;-3.36;53.92
83448;BME280;73376;45.472;-73.568;2024-01-11T08:36:55;100176.22;;;-3.41;53.82
83448;BME280;73376;45.472;-73.568;2024-01-11T08:39:23;100187.03;;;-3.33;53.64
83448;BME280;73376;45.472;-73.568;2024-01-11T08:41:50;100210.69;;;-3.28;53.79
83448;BME280;73376;45.472;-73.568;2024-01-11T08:44:16;100169.75;;;-3.48;54.00
83448;BME280;73376;45.472;-73.568;2024-01-11T08:46:42;100166.91;;;-3.47;53.41
83448;BME280;73376;45.472;-73.568;2024-01-11T08:49:09;100200.81;;;-3.38;53.51
83448;BME280;73376;45.472;-73.568;2024-01-11T08:51:40;100184.50;;;-3.44;53.42
83448;BME280;73376;45.472;-73.568;2024-01-11T08:54:06;100193.91;;;-3.50;53.08
83448;BME280;73376;45.472;-73.568;2024-01-11T08:56:35;100192.53;;;-3.44;53.53
83448;BME280;73376;45.472;-73.568;2024-01-11T08:59:01;100195.34;;;-3.46;53.71
83448;BME280;73376;45.472;-73.568;2024-01-11T09:01:28;100173.78;;;-3.64;53.27
83448;BME280;73376;45.472;-73.568;2024-01-11T09:03:55;100154.66;;;-3.78;53.63
83448;BME280;73376;45.472;-73.568;2024-01-11T09:06:21;100192.09;;;-3.59;53.96
83448;BME280;73376;45.472;-73.568;2024-01-11T09:08:46;100216.16;;;-3.49;52.71
83448;BME280;73376;45.472;-73.568;2024-01-11T09:11:12;100209.94;;;-3.50;52.79
83448;BME280;73376;45.472;-73.568;2024-01-11T09:13:39;100197.97;;;-3.65;52.91
83448;BME280;73376;45.472;-73.568;2024-01-11T09:16:06;100199.25;;;-3.69;52.92
83448;BME280;73376;45.472;-73.568;2024-01-11T09:18:32;100231.91;;;-3.56;52.75
83448;BME280;73376;45.472;-73.568;2024-01-11T09:21:01;100204.25;;;-3.86;52.78
83448;BME280;73376;45.472;-73.568;2024-01-11T09:23:27;100229.19;;;-3.66;53.24
83448;BME280;73376;45.472;-73.568;2024-01-11T09:25:53;100229.31;;;-3.67;53.62
83448;BME280;73376;45.472;-73.568;2024-01-11T09:28:19;100238.31;;;-3.68;53.87
83448;BME280;73376;45.472;-73.568;2024-01-11T09:30:45;100225.34;;;-3.83;53.80
83448;BME280;73376;45.472;-73.568;2024-01-11T09:33:11;100220.28;;;-3.86;53.94
83448;BME280;73376;45.472;-73.568;2024-01-11T09:35:37;100252.41;;;-3.66;54.25
83448;BME280;73376;45.472;-73.568;2024-01-11T09:38:06;100238.03;;;-3.75;54.20
83448;BME280;73376;45.472;-73.568;2024-01-11T09:40:32;100250.69;;;-3.67;53.93
83448;BME280;73376;45.472;-73.568;2024-01-11T09:42:58;100231.13;;;-3.77;54.19
83448;BME280;73376;45.472;-73.568;2024-01-11T09:45:26;100256.03;;;-3.67;53.66
83448;BME280;73376;45.472;-73.568;2024-01-11T09:47:52;100231.81;;;-3.85;53.84
83448;BME280;73376;45.472;-73.568;2024-01-11T09:50:18;100241.22;;;-3.81;54.00
83448;BME280;73376;45.472;-73.568;2024-01-11T09:52:48;100235.31;;;-3.85;54.01
83448;BME280;73376;45.472;-73.568;2024-01-11T09:55:18;100273.19;;;-3.70;53.60
83448;BME280;73376;45.472;-73.568;2024-01-11T09:57:45;100277.66;;;-3.70;53.97
83448;BME280;73376;45.472;-73.568;2024-01-11T10:00:21;100229.38;;;-3.98;53.90
83448;BME280;73376;45.472;-73.568;2024-01-11T10:02:48;100272.34;;;-3.70;53.75
83448;BME280;73376;45.472;-73.568;2024-01-11T10:05:17;100243.28;;;-3.94;54.00
83448;BME280;73376;45.472;-73.568;2024-01-11T10:07:44;100258.34;;;-3.93;53.67
83448;BME280;73376;45.472;-73.568;2024-01-11T10:10:12;100305.06;;;-3.78;53.61
83448;BME280;73376;45.472;-73.568;2024-01-11T10:12:40;100295.22;;;-3.87;53.84
83448;BME280;73376;45.472;-73.568;2024-01-11T10:15:08;100287.41;;;-4.00;53.35
83448;BME280;73376;45.472;-73.568;2024-01-11T10:17:44;100300.94;;;-3.92;53.79
83448;BME280;73376;45.472;-73.568;2024-01-11T10:20:14;100285.31;;;-3.96;54.00
83448;BME280;73376;45.472;-73.568;2024-01-11T10:22:41;100306.47;;;-3.84;53.95
83448;BME280;73376;45.472;-73.568;2024-01-11T10:25:12;100305.44;;;-3.92;53.92
83448;BME280;73376;45.472;-73.568;2024-01-11T10:27:43;100230.19;;;-4.38;54.09
83448;BME280;73376;45.472;-73.568;2024-01-11T10:30:13;100322.03;;;-3.89;53.90
83448;BME280;73376;45.472;-73.568;2024-01-11T10:32:43;100308.19;;;-4.03;53.20
83448;BME280;73376;45.472;-73.568;2024-01-11T10:35:09;100341.72;;;-3.90;53.43
83448;BME280;73376;45.472;-73.568;2024-01-11T10:37:36;100342.81;;;-3.92;54.08
83448;BME280;73376;45.472;-73.568;2024-01-11T10:40:06;100344.75;;;-3.94;53.88
83448;BME280;73376;45.472;-73.568;2024-01-11T10:42:51;100338.59;;;-3.95;54.05
83448;BME280;73376;45.472;-73.568;2024-01-11T10:45:21;100333.44;;;-4.08;54.02
83448;BME280;73376;45.472;-73.568;2024-01-11T10:48:01;100338.09;;;-4.10;54.16
83448;BME280;73376;45.472;-73.568;2024-01-11T10:50:35;100355.53;;;-4.06;54.25
83448;BME280;73376;45.472;-73.568;2024-01-11T10:55:50;100377.47;;;-4.02;54.89
83448;BME280;73376;45.472;-73.568;2024-01-11T10:58:17;100343.88;;;-4.25;54.30
83448;BME280;73376;45.472;-73.568;2024-01-11T11:00:44;100383.06;;;-4.05;54.45
83448;BME280;73376;45.472;-73.568;2024-01-11T11:03:11;100363.34;;;-4.14;54.29
83448;BME280;73376;45.472;-73.568;2024-01-11T11:05:38;100372.78;;;-4.10;54.91
83448;BME280;73376;45.472;-73.568;2024-01-11T11:08:05;100373.91;;;-4.12;54.72
83448;BME280;73376;45.472;-73.568;2024-01-11T11:10:33;100378.72;;;-4.06;54.90
83448;BME280;73376;45.472;-73.568;2024-01-11T11:13:00;100355.13;;;-4.22;55.00
83448;BME280;73376;45.472;-73.568;2024-01-11T11:15:29;100367.31;;;-4.08;54.71
83448;BME280;73376;45.472;-73.568;2024-01-11T11:17:55;100387.75;;;-3.97;54.75
83448;BME280;73376;45.472;-73.568;2024-01-11T11:20:22;100399.75;;;-4.13;55.10
83448;BME280;73376;45.472;-73.568;2024-01-11T11:23:03;100304.94;;;-4.70;55.15
83448;BME280;73376;45.472;-73.568;2024-01-11T11:25:30;100403.41;;;-4.14;55.13
83448;BME280;73376;45.472;-73.568;2024-01-11T11:27:58;100414.19;;;-4.15;55.40
83448;BME280;73376;45.472;-73.568;2024-01-11T11:30:27;100413.75;;;-4.20;55.30
83448;BME280;73376;45.472;-73.568;2024-01-11T11:32:54;100380.47;;;-4.37;55.31
83448;BME280;73376;45.472;-73.568;2024-01-11T11:35:23;100425.91;;;-4.28;55.38
83448;BME280;73376;45.472;-73.568;2024-01-11T11:37:56;100423.88;;;-4.35;55.66
83448;BME280;73376;45.472;-73.568;2024-01-11T11:40:33;100414.88;;;-4.55;55.06
83448;BME280;73376;45.472;-73.568;2024-01-11T11:43:05;100421.47;;;-4.70;55.09
83448;BME280;73376;45.472;-73.568;2024-01-11T11:45:34;100397.41;;;-4.91;55.56
83448;BME280;73376;45.472;-73.568;2024-01-11T11:48:03;100439.41;;;-4.72;55.64
83448;BME280;73376;45.472;-73.568;2024-01-11T11:51:05;100448.75;;;-4.89;55.92
83448;BME280;73376;45.472;-73.568;2024-01-11T11:53:38;100454.09;;;-4.89;56.33
83448;BME280;73376;45.472;-73.568;2024-01-11T11:56:05;100461.63;;;-4.94;56.14
83448;BME280;73376;45.472;-73.568;2024-01-11T11:58:34;100467.34;;;-4.99;56.51
83448;BME280;73376;45.472;-73.568;2024-01-11T12:01:01;100449.50;;;-5.10;56.47
83448;BME280;73376;45.472;-73.568;2024-01-11T12:03:32;100463.56;;;-5.08;56.51
83448;BME280;73376;45.472;-73.568;2024-01-11T12:06:00;100425.22;;;-5.39;56.38
83448;BME280;73376;45.472;-73.568;2024-01-11T12:08:29;100439.38;;;-5.38;56.28
83448;BME280;73376;45.472;-73.568;2024-01-11T12:10:55;100484.06;;;-5.19;56.26
83448;BME280;73376;45.472;-73.568;2024-01-11T12:13:21;100462.25;;;-5.36;56.45
83448;BME280;73376;45.472;-73.568;2024-01-11T12:15:48;100471.47;;;-5.29;56.57
83448;BME280;73376;45.472;-73.568;2024-01-11T12:18:14;100479.69;;;-5.32;56.92
83448;BME280;73376;45.472;-73.568;2024-01-11T12:20:40;100460.56;;;-5.48;57.04
83448;BME280;73376;45.472;-73.568;2024-01-11T12:23:06;100481.00;;;-5.37;56.81
83448;BME280;73376;45.472;-73.568;2024-01-11T12:25:32;100457.50;;;-5.55;56.84
83448;BME280;73376;45.472;-73.568;2024-01-11T12:27:58;100486.34;;;-5.37;56.78
83448;BME280;73376;45.472;-73.568;2024-01-11T12:30:25;100468.16;;;-5.55;56.49
83448;BME280;73376;45.472;-73.568;2024-01-11T12:32:53;100501.84;;;-5.42;56.59
83448;BME280;73376;45.472;-73.568;2024-01-11T12:35:20;100449.16;;;-5.73;56.42
83448;BME280;73376;45.472;-73.568;2024-01-11T12:38:13;100508.25;;;-5.45;56.52
83448;BME280;73376;45.472;-73.568;2024-01-11T12:40:40;100477.59;;;-5.62;56.43
83448;BME280;73376;45.472;-73.568;2024-01-11T12:43:11;100501.34;;;-5.48;56.55